sensor_id;sensor_type;location;lat;lon;timestamp;P1;durP1;ratioP1;P2;durP2;ratioP2
35757;SDS011;21879;50.110;18.900;2023-06-10T00:01:23;19.70;;;17.30;;
35757;SDS011;21879;50.110;18.900;2023-06-10T00:11:49;21.90;;;17.30;;
35757;SDS011;21879;50.110;18.900;2023-06-10T00:22:15;23.50;;;20.60;;
35757;SDS011;21879;50.110;18.900;2023-06-10T00:32:41;30.10;;;24.80;;
35757;SDS011;21879;50.110;18.900;2023-06-10T00:43:06;30.30;;;24.40;;
35757;SDS011;21879;50.110;18.900;2023-06-10T00:53:32;26.50;;;22.30;;
35757;SDS011;21879;50.110;18.900;2023-06-10T01:03:59;24.20;;;19.90;;
35757;SDS011;21879;50.110;18.900;2023-06-10T01:14:25;25.50;;;19.80;;
35757;SDS011;21879;50.110;18.900;2023-06-10T01:24:54;24.70;;;20.00;;
35757;SDS011;21879;50.110;18.900;2023-06-10T01:35:22;23.30;;;19.10;;
35757;SDS011;21879;50.110;18.900;2023-06-10T01:45:51;20.40;;;18.10;;
35757;SDS011;21879;50.110;18.900;2023-06-10T01:56:17;25.80;;;21.90;;
35757;SDS011;21879;50.110;18.900;2023-06-10T02:06:43;25.00;;;20.30;;
35757;SDS011;21879;50.110;18.900;2023-06-10T02:17:09;23.40;;;20.10;;
35757;SDS011;21879;50.110;18.900;2023-06-10T02:27:37;21.40;;;18.30;;
35757;SDS011;21879;50.110;18.900;2023-06-10T02:38:04;22.50;;;18.10;;
35757;SDS011;21879;50.110;18.900;2023-06-10T02:48:30;18.70;;;16.30;;
35757;SDS011;21879;50.110;18.900;2023-06-10T02:58:55;19.90;;;16.30;;
35757;SDS011;21879;50.110;18.900;2023-06-10T03:09:22;23.20;;;20.10;;
35757;SDS011;21879;50.110;18.900;2023-06-10T03:19:47;22.10;;;19.60;;
35757;SDS011;21879;50.110;18.900;2023-06-10T03:30:14;21.90;;;19.10;;
35757;SDS011;21879;50.110;18.900;2023-06-10T03:40:40;21.00;;;18.80;;
35757;SDS011;21879;50.110;18.900;2023-06-10T03:51:06;21.80;;;19.00;;
35757;SDS011;21879;50.110;18.900;2023-06-10T04:01:32;23.70;;;20.70;;
35757;SDS011;21879;50.110;18.900;2023-06-10T04:12:00;23.00;;;20.00;;
35757;SDS011;21879;50.110;18.900;2023-06-10T04:22:29;21.70;;;19.50;;
35757;SDS011;21879;50.110;18.900;2023-06-10T04:32:55;23.10;;;20.30;;
35757;SDS011;21879;50.110;18.900;2023-06-10T04:43:21;24.40;;;19.30;;
35757;SDS011;21879;50.110;18.900;2023-06-10T04:53:47;20.30;;;16.70;;
35757;SDS011;21879;50.110;18.900;2023-06-10T05:04:13;17.70;;;15.40;;
35757;SDS011;21879;50.110;18.900;2023-06-10T05:14:38;17.00;;;14.80;;
35757;SDS011;21879;50.110;18.900;2023-06-10T05:25:05;16.10;;;13.60;;
35757;SDS011;21879;50.110;18.900;2023-06-10T05:35:33;16.90;;;14.60;;
35757;SDS011;21879;50.110;18.900;2023-06-10T05:45:59;15.20;;;13.70;;
35757;SDS011;21879;50.110;18.900;2023-06-10T05:56:25;15.80;;;14.20;;
35757;SDS011;21879;50.110;18.900;2023-06-10T06:06:51;17.20;;;14.00;;
35757;SDS011;21879;50.110;18.900;2023-06-10T06:17:16;14.90;;;12.60;;
35757;SDS011;21879;50.110;18.900;2023-06-10T06:27:51;14.40;;;12.30;;
35757;SDS011;21879;50.110;18.900;2023-06-10T06:38:18;16.40;;;13.10;;
35757;SDS011;21879;50.110;18.900;2023-06-10T06:48:43;16.20;;;14.20;;
35757;SDS011;21879;50.110;18.900;2023-06-10T06:59:09;18.30;;;14.80;;
35757;SDS011;21879;50.110;18.900;2023-06-10T07:09:36;15.30;;;13.50;;
35757;SDS011;21879;50.110;18.900;2023-06-10T07:20:03;15.00;;;13.20;;
35757;SDS011;21879;50.110;18.900;2023-06-10T07:30:31;14.70;;;12.40;;
35757;SDS011;21879;50.110;18.900;2023-06-10T07:40:57;17.90;;;13.40;;
35757;SDS011;21879;50.110;18.900;2023-06-10T07:51:23;12.70;;;11.10;;
35757;SDS011;21879;50.110;18.900;2023-06-10T08:01:49;14.00;;;12.50;;
35757;SDS011;21879;50.110;18.900;2023-06-10T08:12:15;14.00;;;12.20;;
35757;SDS011;21879;50.110;18.900;2023-06-10T08:22:41;13.10;;;11.40;;
35757;SDS011;21879;50.110;18.900;2023-06-10T08:33:07;15.40;;;13.80;;
35757;SDS011;21879;50.110;18.900;2023-06-10T08:43:46;16.10;;;14.10;;
35757;SDS011;21879;50.110;18.900;2023-06-10T08:54:20;15.10;;;13.60;;
35757;SDS011;21879;50.110;18.900;2023-06-10T09:04:49;16.60;;;14.90;;
35757;SDS011;21879;50.110;18.900;2023-06-10T09:15:15;16.30;;;14.80;;
35757;SDS011;21879;50.110;18.900;2023-06-10T09:25:41;14.20;;;12.80;;
35757;SDS011;21879;50.110;18.900;2023-06-10T09:36:07;15.30;;;12.50;;
35757;SDS011;21879;50.110;18.900;2023-06-10T09:46:34;13.20;;;11.80;;
35757;SDS011;21879;50.110;18.900;2023-06-10T09:57:00;14.70;;;13.10;;
35757;SDS011;21879;50.110;18.900;2023-06-10T10:07:33;13.20;;;11.90;;
35757;SDS011;21879;50.110;18.900;2023-06-10T10:18:00;15.10;;;11.40;;
35757;SDS011;21879;50.110;18.900;2023-06-10T10:28:33;11.00;;;8.90;;
35757;SDS011;21879;50.110;18.900;2023-06-10T10:39:09;8.50;;;6.90;;
35757;SDS011;21879;50.110;18.900;2023-06-10T11:00:01;12.00;;;10.40;;
35757;SDS011;21879;50.110;18.900;2023-06-10T11:21:00;10.30;;;8.60;;
35757;SDS011;21879;50.110;18.900;2023-06-10T11:31:28;7.60;;;6.80;;
35757;SDS011;21879;50.110;18.900;2023-06-10T11:41:56;7.80;;;6.90;;
35757;SDS011;21879;50.110;18.900;2023-06-10T11:52:26;8.10;;;6.80;;
35757;SDS011;21879;50.110;18.900;2023-06-10T14:15:18;7.80;;;6.90;;
35757;SDS011;21879;50.110;18.900;2023-06-10T14:26:03;6.30;;;5.70;;
35757;SDS011;21879;50.110;18.900;2023-06-10T14:36:30;6.90;;;6.30;;
35757;SDS011;21879;50.110;18.900;2023-06-10T14:46:56;8.30;;;7.40;;
35757;SDS011;21879;50.110;18.900;2023-06-10T14:57:22;9.30;;;5.00;;
35757;SDS011;21879;50.110;18.900;2023-06-10T15:19:41;4.20;;;3.40;;
35757;SDS011;21879;50.110;18.900;2023-06-10T15:30:08;6.90;;;5.40;;
35757;SDS011;21879;50.110;18.900;2023-06-10T15:50:58;8.00;;;6.10;;
35757;SDS011;21879;50.110;18.900;2023-06-10T16:01:24;9.60;;;8.60;;
35757;SDS011;21879;50.110;18.900;2023-06-10T16:11:50;12.00;;;9.60;;
35757;SDS011;21879;50.110;18.900;2023-06-10T16:22:16;11.90;;;8.70;;
35757;SDS011;21879;50.110;18.900;2023-06-10T16:32:42;12.80;;;10.90;;
35757;SDS011;21879;50.110;18.900;2023-06-10T16:43:08;13.40;;;10.10;;
35757;SDS011;21879;50.110;18.900;2023-06-10T16:53:34;12.20;;;10.10;;
35757;SDS011;21879;50.110;18.900;2023-06-10T17:04:00;8.90;;;7.80;;
35757;SDS011;21879;50.110;18.900;2023-06-10T17:14:26;8.40;;;7.50;;
35757;SDS011;21879;50.110;18.900;2023-06-10T17:45:44;5.20;;;3.50;;
35757;SDS011;21879;50.110;18.900;2023-06-10T17:56:11;4.90;;;4.00;;
35757;SDS011;21879;50.110;18.900;2023-06-10T18:06:37;4.80;;;4.00;;
35757;SDS011;21879;50.110;18.900;2023-06-10T18:17:03;6.00;;;3.80;;
35757;SDS011;21879;50.110;18.900;2023-06-10T18:37:55;5.00;;;4.00;;
35757;SDS011;21879;50.110;18.900;2023-06-10T18:48:21;4.60;;;3.70;;
35757;SDS011;21879;50.110;18.900;2023-06-10T18:58:48;4.50;;;4.10;;
35757;SDS011;21879;50.110;18.900;2023-06-10T19:09:16;6.90;;;4.30;;
35757;SDS011;21879;50.110;18.900;2023-06-10T19:19:29;5.00;;;4.20;;
35757;SDS011;21879;50.110;18.900;2023-06-10T19:29:55;6.40;;;4.60;;
35757;SDS011;21879;50.110;18.900;2023-06-10T19:40:21;4.60;;;3.70;;
35757;SDS011;21879;50.110;18.900;2023-06-10T19:50:48;5.30;;;4.20;;
35757;SDS011;21879;50.110;18.900;2023-06-10T20:01:14;6.10;;;4.00;;
35757;SDS011;21879;50.110;18.900;2023-06-10T20:11:41;5.70;;;5.00;;
35757;SDS011;21879;50.110;18.900;2023-06-10T20:22:07;6.30;;;5.50;;
35757;SDS011;21879;50.110;18.900;2023-06-10T20:32:33;7.50;;;5.90;;
35757;SDS011;21879;50.110;18.900;2023-06-10T20:43:00;6.10;;;5.20;;
35757;SDS011;21879;50.110;18.900;2023-06-10T20:53:26;7.30;;;6.10;;
35757;SDS011;21879;50.110;18.900;2023-06-10T21:03:52;8.00;;;6.10;;
35757;SDS011;21879;50.110;18.900;2023-06-10T21:14:18;7.80;;;6.20;;
35757;SDS011;21879;50.110;18.900;2023-06-10T21:24:44;9.30;;;6.50;;
35757;SDS011;21879;50.110;18.900;2023-06-10T21:35:11;9.40;;;6.10;;
35757;SDS011;21879;50.110;18.900;2023-06-10T21:45:38;8.80;;;7.20;;
35757;SDS011;21879;50.110;18.900;2023-06-10T21:56:04;8.60;;;7.20;;
35757;SDS011;21879;50.110;18.900;2023-06-10T22:06:30;9.00;;;7.00;;
35757;SDS011;21879;50.110;18.900;2023-06-10T22:16:57;8.20;;;7.10;;
35757;SDS011;21879;50.110;18.900;2023-06-10T22:27:23;8.70;;;7.00;;
35757;SDS011;21879;50.110;18.900;2023-06-10T22:37:49;9.10;;;7.40;;
35757;SDS011;21879;50.110;18.900;2023-06-10T22:48:16;8.70;;;6.70;;
35757;SDS011;21879;50.110;18.900;2023-06-10T22:58:43;8.80;;;7.80;;
35757;SDS011;21879;50.110;18.900;2023-06-10T23:09:09;8.70;;;7.80;;
35757;SDS011;21879;50.110;18.900;2023-06-10T23:19:36;9.70;;;8.40;;
35757;SDS011;21879;50.110;18.900;2023-06-10T23:30:04;10.40;;;8.70;;
35757;SDS011;21879;50.110;18.900;2023-06-10T23:40:31;10.70;;;9.30;;
35757;SDS011;21879;50.110;18.900;2023-06-10T23:50:57;12.60;;;10.40;;
